Time;durP1;ratioP1;P1;durP2;ratioP2;P2;SDS_P1;SDS_P2;PMS_P1;PMS_P2;Temp;Humidity;BMP_temperature;BMP_pressure;BME280_temperature;BME280_humidity;BME280_pressure;Samples;Min_cycle;Max_cycle;Signal;HPM_P1;HPM_P2
2024/01/12 00:01:47;;;;;;;59.42;54.42;;;4.70;80.30;;;;;;12652992;28;20356;-76
2024/01/12 00:07:49;;;;;;;46.72;41.72;;;4.80;80.00;;;;;;12652927;28;20047;-76
2024/01/12 00:13:50;;;;;;;45.38;39.20;;;4.60;80.40;;;;;;12656549;28;20420;-76
2024/01/12 00:19:52;;;;;;;46.83;41.97;;;4.70;80.10;;;;;;12662079;28;20459;-76
2024/01/12 00:25:59;;;;;;;63.28;58.28;;;4.70;80.10;;;;;;12661734;28;20028;-76
2024/01/12 00:32:00;;;;;;;49.28;44.75;;;4.70;79.90;;;;;;12661550;28;20028;-76
2024/01/12 00:38:02;;;;;;;36.17;31.98;;;4.40;79.80;;;;;;12661300;28;20039;-76
2024/01/12 00:44:05;;;;;;;29.77;25.77;;;4.00;80.50;;;;;;12660847;28;20043;-75
2024/01/12 00:50:08;;;;;;;32.45;25.20;;;3.80;81.00;;;;;;12661397;28;20028;-76
2024/01/12 00:56:09;;;;;;;27.00;23.23;;;3.70;81.50;;;;;;12660307;28;20036;-76
2024/01/12 01:02:11;;;;;;;35.65;25.83;;;3.50;81.50;;;;;;12660070;28;20063;-76
2024/01/12 01:08:13;;;;;;;38.97;29.15;;;3.40;81.70;;;;;;12659655;28;20036;-76
2024/01/12 01:14:14;;;;;;;34.83;27.77;;;3.40;81.90;;;;;;12659430;28;20028;-76
2024/01/12 01:20:16;;;;;;;40.33;32.72;;;3.50;82.10;;;;;;12659175;28;20424;-75
2024/01/12 01:26:17;;;;;;;34.95;29.30;;;3.70;81.90;;;;;;12658313;28;20028;-76
2024/01/12 01:32:39;;;;;;;39.13;27.35;;;3.80;81.40;;;;;;12644310;28;20035;-76
2024/01/12 01:38:41;;;;;;;37.13;29.15;;;3.70;81.40;;;;;;12658283;28;20024;-76
2024/01/12 01:44:42;;;;;;;49.95;40.08;;;3.70;81.60;;;;;;12657871;28;20028;-76
2024/01/12 01:50:44;;;;;;;34.30;27.73;;;3.70;81.60;;;;;;12657669;28;20024;-76
2024/01/12 01:56:46;;;;;;;43.05;37.85;;;3.90;81.70;;;;;;12638945;28;20044;-76
2024/01/12 02:02:48;;;;;;;35.13;28.35;;;3.90;81.60;;;;;;12657052;28;20436;-76
2024/01/12 02:08:50;;;;;;;41.22;31.30;;;4.10;81.60;;;;;;12656828;28;20036;-76
2024/01/12 02:14:52;;;;;;;49.72;38.42;;;4.10;81.30;;;;;;12638528;28;20051;-76
2024/01/12 02:20:59;;;;;;;33.38;29.05;;;4.10;81.30;;;;;;12656339;28;20035;-76
2024/01/12 02:27:01;;;;;;;35.75;28.65;;;4.10;81.20;;;;;;12638154;28;20470;-76
2024/01/12 02:33:08;;;;;;;43.70;35.25;;;4.00;81.00;;;;;;12637688;28;20032;-76
2024/01/12 02:39:10;;;;;;;40.47;33.05;;;4.00;80.90;;;;;;12636735;28;20474;-76
2024/01/12 02:45:12;;;;;;;36.28;29.67;;;3.90;80.80;;;;;;12637185;28;20050;-76
2024/01/12 02:51:13;;;;;;;31.33;27.88;;;3.90;80.70;;;;;;12654966;28;20028;-76
2024/01/12 02:57:15;;;;;;;36.75;29.52;;;3.90;80.80;;;;;;12636779;28;20039;-76
2024/01/12 03:03:16;;;;;;;30.98;24.88;;;3.90;80.80;;;;;;12654546;28;20346;-76
2024/01/12 03:09:18;;;;;;;31.88;25.95;;;3.70;80.80;;;;;;12654460;28;20358;-76
2024/01/12 03:15:19;;;;;;;41.38;33.35;;;3.70;80.90;;;;;;12654283;28;20032;-76
2024/01/12 03:21:21;;;;;;;30.83;27.42;;;3.70;80.80;;;;;;12636714;28;20344;-76
2024/01/12 03:27:22;;;;;;;31.10;25.75;;;3.70;80.60;;;;;;12653810;28;20031;-76
2024/01/12 03:33:24;;;;;;;41.63;31.77;;;3.80;80.50;;;;;;12635948;28;20356;-76
2024/01/12 03:39:25;;;;;;;30.30;26.67;;;3.80;80.40;;;;;;12653615;28;20028;-76
2024/01/12 03:45:27;;;;;;;27.70;23.85;;;3.90;80.20;;;;;;12653427;28;20352;-76
2024/01/12 03:51:28;;;;;;;43.83;34.08;;;3.90;80.10;;;;;;12642906;28;20035;-77
2024/01/12 03:57:30;;;;;;;38.17;31.08;;;3.90;80.10;;;;;;12663030;28;20071;-76
2024/01/12 04:03:31;;;;;;;37.17;33.42;;;4.00;80.10;;;;;;12663464;28;20035;-76
2024/01/12 04:09:33;;;;;;;39.38;31.10;;;4.10;80.00;;;;;;12662646;28;20039;-76
2024/01/12 04:15:34;;;;;;;33.58;27.52;;;3.90;79.90;;;;;;12644808;28;20161;-76
2024/01/12 04:21:36;;;;;;;38.38;32.20;;;3.60;80.10;;;;;;12662123;28;20055;-76
2024/01/12 04:27:37;;;;;;;38.40;27.95;;;3.50;80.80;;;;;;12661746;28;20039;-76
2024/01/12 04:33:40;;;;;;;41.13;33.70;;;3.80;80.60;;;;;;12643231;28;20040;-76
2024/01/12 04:39:42;;;;;;;37.13;30.30;;;3.90;80.30;;;;;;12643313;28;20032;-76
2024/01/12 04:45:43;;;;;;;35.22;29.27;;;4.10;80.20;;;;;;12642832;28;20035;-76
2024/01/12 04:51:45;;;;;;;46.75;41.58;;;4.30;80.10;;;;;;12660680;28;20039;-76
2024/01/12 04:57:47;;;;;;;38.15;31.98;;;4.20;79.70;;;;;;12626100;28;20044;-76
2024/01/12 05:03:48;;;;;;;34.75;31.02;;;4.30;79.60;;;;;;12659027;28;20032;-76
2024/01/12 05:09:50;;;;;;;37.72;32.88;;;4.30;79.30;;;;;;12659793;28;20028;-76
2024/01/12 05:15:52;;;;;;;45.13;39.45;;;4.40;79.40;;;;;;12641858;28;20352;-76
2024/01/12 05:21:53;;;;;;;38.13;32.83;;;4.70;80.00;;;;;;12659203;28;20039;-76
2024/01/12 05:27:55;;;;;;;40.15;35.85;;;4.70;79.60;;;;;;12659617;28;20032;-76
2024/01/12 05:33:57;;;;;;;50.90;46.67;;;4.70;79.10;;;;;;12658725;28;20032;-76
2024/01/12 05:39:58;;;;;;;35.38;31.58;;;4.10;79.20;;;;;;12658343;28;20032;-76
2024/01/12 05:46:00;;;;;;;46.55;41.47;;;3.70;80.00;;;;;;12657954;28;20047;-76
2024/01/12 05:52:02;;;;;;;43.83;39.33;;;3.60;80.50;;;;;;12658473;28;20019;-76
2024/01/12 05:58:04;;;;;;;42.75;34.47;;;4.00;80.20;;;;;;12657441;28;20381;-76
2024/01/12 06:04:06;;;;;;;39.88;34.53;;;4.10;79.70;;;;;;12657120;28;20036;-76
2024/01/12 06:10:08;;;;;;;54.95;50.15;;;4.30;79.80;;;;;;12656852;28;20324;-76
2024/01/12 06:16:10;;;;;;;50.90;40.63;;;4.40;79.30;;;;;;12638657;28;20035;-76
2024/01/12 06:22:13;;;;;;;54.78;49.05;;;4.50;78.70;;;;;;12657053;28;20032;-76
2024/01/12 06:28:14;;;;;;;61.65;56.28;;;4.40;78.50;;;;;;12656070;28;20028;-76
2024/01/12 06:34:16;;;;;;;45.88;41.03;;;4.50;78.50;;;;;;12655914;28;20035;-76
2024/01/12 06:40:18;;;;;;;49.40;40.97;;;4.70;78.10;;;;;;12655624;28;20039;-76
2024/01/12 06:46:19;;;;;;;39.35;34.53;;;4.70;78.00;;;;;;12655944;28;20043;-76
2024/01/12 06:52:21;;;;;;;54.45;49.65;;;4.80;77.70;;;;;;12637510;28;20035;-76
2024/01/12 06:58:23;;;;;;;66.82;60.78;;;4.70;77.70;;;;;;12642461;22;20049;-76
2024/01/12 07:04:24;;;;;;;41.33;37.17;;;4.70;77.80;;;;;;12636381;28;20047;-76
2024/01/12 07:10:26;;;;;;;64.53;58.60;;;4.70;77.50;;;;;;12653769;28;20032;-76
2024/01/12 07:16:27;;;;;;;48.13;41.08;;;4.40;77.90;;;;;;12653648;28;20040;-76
2024/01/12 07:22:48;;;;;;;57.67;52.22;;;4.60;78.00;;;;;;12635401;28;20035;-76
2024/01/12 07:28:49;;;;;;;56.70;48.05;;;4.70;77.50;;;;;;12635840;28;20043;-76
2024/01/12 07:34:53;;;;;;;65.85;60.45;;;4.70;77.70;;;;;;12635661;28;20032;-76
2024/01/12 07:40:54;;;;;;;60.90;55.13;;;4.70;77.60;;;;;;12653479;28;20051;-76
2024/01/12 07:46:56;;;;;;;50.80;40.15;;;4.70;77.80;;;;;;12653294;28;20032;-76
2024/01/12 07:52:58;;;;;;;59.85;54.17;;;4.80;78.00;;;;;;12653194;28;20024;-76
2024/01/12 07:59:00;;;;;;;60.45;54.75;;;4.70;78.10;;;;;;12635104;28;20028;-76
2024/01/12 08:05:02;;;;;;;48.47;41.90;;;5.00;78.70;;;;;;12635477;28;20036;-76
2024/01/12 08:11:04;;;;;;;51.78;46.00;;;5.00;78.60;;;;;;12652847;28;20024;-76
2024/01/12 08:17:05;;;;;;;46.10;41.17;;;5.20;78.90;;;;;;12652760;28;20039;-77
2024/01/12 08:23:07;;;;;;;50.72;45.47;;;5.20;79.00;;;;;;12652566;28;20032;-76
2024/01/12 08:29:09;;;;;;;74.50;69.03;;;5.40;79.20;;;;;;12634664;28;20032;-76
2024/01/12 08:35:10;;;;;;;57.25;52.63;;;5.50;79.60;;;;;;12636219;28;20349;-76
2024/01/12 08:41:12;;;;;;;30.02;25.20;;;5.60;80.00;;;;;;12643256;28;20048;-76
2024/01/12 08:47:14;;;;;;;32.10;29.13;;;5.60;80.30;;;;;;12637010;28;20035;-76
2024/01/12 08:53:16;;;;;;;24.23;21.73;;;5.70;80.50;;;;;;12660734;28;20055;-76
2024/01/12 08:59:20;;;;;;;23.75;21.40;;;5.70;80.70;;;;;;12660202;28;20032;-76
2024/01/12 09:05:22;;;;;;;31.20;28.13;;;5.80;80.90;;;;;;12641993;28;20039;-76
2024/01/12 09:11:24;;;;;;;22.30;20.00;;;5.90;81.00;;;;;;12659765;28;20020;-76
2024/01/12 09:17:25;;;;;;;19.55;17.27;;;6.00;81.30;;;;;;12659537;28;20042;-76
2024/01/12 09:23:27;;;;;;;31.30;28.75;;;6.00;82.00;;;;;;12659110;28;20032;-76
2024/01/12 09:29:29;;;;;;;56.40;52.65;;;6.10;82.40;;;;;;12640999;28;20054;-77
2024/01/12 09:35:30;;;;;;;49.97;46.80;;;6.20;82.60;;;;;;12658599;28;20086;-76
2024/01/12 09:41:44;;;;;;;22.35;13.02;;;6.20;83.00;;;;;;12659160;28;20062;-76
2024/01/12 09:47:46;;;;;;;15.95;13.15;;;6.20;83.30;;;;;;12657452;28;20036;-76
2024/01/12 09:53:48;;;;;;;15.15;11.48;;;6.30;83.60;;;;;;12639656;28;20032;-76
2024/01/12 09:59:52;;;;;;;14.75;10.88;;;6.30;83.60;;;;;;12639362;28;20047;-76
2024/01/12 10:05:54;;;;;;;13.63;12.13;;;6.30;83.90;;;;;;12657109;28;20032;-73
2024/01/12 10:11:56;;;;;;;28.48;26.42;;;6.50;84.00;;;;;;12656983;28;20447;-73
2024/01/12 10:17:58;;;;;;;13.30;9.98;;;6.60;84.30;;;;;;12622045;28;20036;-74
2024/01/12 10:24:06;;;;;;;14.60;11.27;;;6.70;84.40;;;;;;12655898;28;20028;-73
2024/01/12 10:30:09;;;;;;;12.55;9.52;;;6.80;84.60;;;;;;12604902;28;20047;-74
2024/01/12 10:36:22;;;;;;;15.82;9.13;;;6.70;84.60;;;;;;12655705;28;20032;-74
2024/01/12 10:42:26;;;;;;;14.55;12.95;;;6.70;84.80;;;;;;12655472;28;20036;-74
2024/01/12 10:48:59;;;;;;;36.90;34.55;;;6.80;84.80;;;;;;12637069;28;20028;-73
2024/01/12 10:55:36;;;;;;;80.53;76.80;;;7.00;84.80;;;;;;12654756;28;20035;-74
2024/01/12 11:01:38;;;;;;;58.17;54.97;;;7.20;84.70;;;;;;12635842;28;20036;-73
2024/01/12 11:07:42;;;;;;;55.13;51.95;;;7.40;84.70;;;;;;12654482;28;20036;-73
2024/01/12 11:13:45;;;;;;;68.95;65.30;;;7.50;84.40;;;;;;12620463;28;20475;-73
2024/01/12 11:19:46;;;;;;;100.15;95.45;;;7.70;84.60;;;;;;12654215;28;20426;-74
2024/01/12 11:25:48;;;;;;;167.60;159.85;;;7.80;84.50;;;;;;12635962;28;20028;-73
2024/01/12 11:31:54;;;;;;;234.80;224.65;;;8.20;84.40;;;;;;12653859;28;20035;-73
2024/01/12 11:38:09;;;;;;;259.13;247.57;;;8.40;83.80;;;;;;12635854;28;20028;-72
2024/01/12 11:44:11;;;;;;;219.20;210.18;;;8.50;83.30;;;;;;12653543;28;20035;-75
2024/01/12 11:50:17;;;;;;;180.65;173.23;;;8.50;83.20;;;;;;12635511;28;20028;-75
2024/01/12 11:56:24;;;;;;;231.50;221.68;;;8.70;83.20;;;;;;12634986;28;20028;-74
2024/01/12 12:02:48;;;;;;;198.63;190.35;;;8.70;82.90;;;;;;12652959;28;20028;-75
2024/01/12 12:08:55;;;;;;;158.80;152.77;;;8.50;81.70;;;;;;12619534;28;20044;-75
2024/01/12 12:15:12;;;;;;;304.37;291.53;;;8.60;82.60;;;;;;12661477;28;20024;-74
2024/01/12 12:21:14;;;;;;;261.90;251.45;;;8.60;82.30;;;;;;12661761;28;20348;-74
2024/01/12 12:27:17;;;;;;;299.00;286.27;;;8.60;82.20;;;;;;12662020;28;20036;-74
2024/01/12 12:33:23;;;;;;;266.75;255.95;;;8.40;80.70;;;;;;12644011;28;20044;-75
2024/01/12 12:39:25;;;;;;;241.32;230.98;;;8.40;81.10;;;;;;12643224;28;20035;-75
2024/01/12 12:45:27;;;;;;;232.82;222.77;;;8.40;80.60;;;;;;12660852;28;20039;-74
2024/01/12 12:51:30;;;;;;;230.95;220.98;;;8.50;81.20;;;;;;12660670;28;20032;-74
2024/01/12 12:58:00;;;;;;;295.58;283.42;;;8.50;81.10;;;;;;12642316;28;20048;-75
2024/01/12 13:04:04;;;;;;;253.27;242.02;;;8.60;81.40;;;;;;12660023;28;20032;-74
2024/01/12 13:10:07;;;;;;;196.45;187.90;;;8.70;80.90;;;;;;12659721;28;20051;-74
2024/01/12 13:16:09;;;;;;;155.30;149.00;;;8.70;81.00;;;;;;12659297;28;20290;-74
2024/01/12 13:22:12;;;;;;;196.38;187.88;;;8.70;79.90;;;;;;12658311;28;20036;-74
2024/01/12 13:28:14;;;;;;;137.38;132.15;;;8.70;80.40;;;;;;12641348;28;20036;-74
2024/01/12 13:34:16;;;;;;;260.60;249.10;;;8.80;80.20;;;;;;12640580;28;20043;-75
2024/01/12 13:40:17;;;;;;;186.13;177.98;;;8.80;80.00;;;;;;12658232;28;20036;-74
2024/01/12 13:46:19;;;;;;;205.85;197.25;;;8.80;79.80;;;;;;12640172;28;20050;-75
2024/01/12 13:52:21;;;;;;;192.70;184.48;;;8.80;80.30;;;;;;12639604;28;20035;-75
2024/01/12 13:58:24;;;;;;;295.40;283.42;;;8.90;81.00;;;;;;12639791;28;20471;-74
2024/01/12 14:04:32;;;;;;;236.90;227.23;;;8.80;80.50;;;;;;12638976;28;20036;-74
2024/01/12 14:10:37;;;;;;;243.45;233.82;;;8.90;81.20;;;;;;12639094;28;20032;-74
2024/01/12 14:16:38;;;;;;;36.78;34.83;;;9.00;82.60;;;;;;12656459;28;20043;-74
2024/01/12 14:22:40;;;;;;;22.63;21.00;;;9.10;82.20;;;;;;12656237;28;20028;-74
2024/01/12 14:28:42;;;;;;;60.58;57.75;;;9.40;81.90;;;;;;12637744;28;20040;-74
2024/01/12 14:34:44;;;;;;;25.75;24.30;;;9.90;82.10;;;;;;12655718;28;20028;-74
2024/01/12 14:40:48;;;;;;;7.82;5.55;;;9.90;81.80;;;;;;12655416;28;20047;-74
2024/01/12 14:46:51;;;;;;;12.98;5.82;;;10.20;82.70;;;;;;12655152;28;20028;-75
2024/01/12 14:52:54;;;;;;;7.32;5.78;;;10.20;82.70;;;;;;12636931;28;20032;-74
2024/01/12 14:58:56;;;;;;;40.25;38.45;;;9.80;83.70;;;;;;12637573;22;20052;-74
2024/01/12 15:04:58;;;;;;;71.45;68.45;;;9.50;84.10;;;;;;12586442;28;20045;-74
2024/01/12 15:11:23;;;;;;;106.55;102.13;;;9.30;84.70;;;;;;12606107;28;20060;-72
2024/01/12 15:17:39;;;;;;;135.30;130.02;;;9.20;84.20;;;;;;12604597;28;20029;-73
2024/01/12 15:23:40;;;;;;;90.45;86.78;;;9.20;84.20;;;;;;12603774;28;20029;-73
2024/01/12 15:29:42;;;;;;;125.00;120.15;;;9.40;84.50;;;;;;12586441;28;20043;-72
2024/01/12 15:35:44;;;;;;;185.45;177.88;;;9.30;84.40;;;;;;12603592;28;20028;-72
2024/01/12 15:41:46;;;;;;;209.90;201.68;;;9.00;84.80;;;;;;12603461;28;20040;-72
2024/01/12 15:47:48;;;;;;;226.27;217.77;;;8.90;85.30;;;;;;12594110;28;20028;-72
2024/01/12 15:53:50;;;;;;;236.65;226.35;;;8.80;85.50;;;;;;12595232;28;20048;-75
2024/01/12 15:59:51;;;;;;;158.63;151.88;;;8.60;85.60;;;;;;12594902;28;20036;-74
2024/01/12 16:05:53;;;;;;;149.07;142.63;;;8.60;85.80;;;;;;12612994;28;20039;-74
2024/01/12 16:11:55;;;;;;;168.60;161.77;;;8.50;85.90;;;;;;12594942;28;20421;-74
2024/01/12 16:17:57;;;;;;;99.25;94.38;;;8.40;85.80;;;;;;12594244;28;20067;-73
2024/01/12 16:23:59;;;;;;;145.20;138.68;;;8.40;86.10;;;;;;12593738;28;20334;-73
2024/01/12 16:30:01;;;;;;;176.10;168.57;;;8.40;86.10;;;;;;12593630;28;20036;-73
2024/01/12 16:36:03;;;;;;;85.00;81.15;;;8.30;86.10;;;;;;12593288;28;20033;-73
2024/01/12 16:42:05;;;;;;;145.55;139.20;;;8.20;85.90;;;;;;12592992;28;20067;-73
2024/01/12 16:48:07;;;;;;;179.55;171.95;;;8.30;85.90;;;;;;12610449;28;20039;-73
2024/01/12 16:54:08;;;;;;;29.35;27.40;;;8.20;85.90;;;;;;12575478;28;20048;-75
2024/01/12 17:00:11;;;;;;;24.67;23.08;;;8.10;85.80;;;;;;12608916;28;20029;-74
2024/01/12 17:06:12;;;;;;;34.67;32.90;;;8.20;85.70;;;;;;12609675;28;20032;-74
2024/01/12 17:12:14;;;;;;;52.97;49.75;;;8.10;85.40;;;;;;12609446;28;20021;-74
2024/01/12 17:18:16;;;;;;;59.30;56.22;;;8.10;85.40;;;;;;12590052;28;20361;-73
2024/01/12 17:24:18;;;;;;;24.83;22.83;;;8.10;85.30;;;;;;12591910;28;20036;-73
2024/01/12 17:30:20;;;;;;;25.40;23.10;;;8.20;85.40;;;;;;12591532;28;20452;-73
2024/01/12 17:36:21;;;;;;;31.88;29.63;;;8.20;85.40;;;;;;12608389;28;20056;-73
2024/01/12 17:42:23;;;;;;;79.18;74.95;;;8.10;85.30;;;;;;12608085;28;20036;-73
2024/01/12 17:48:26;;;;;;;77.03;73.10;;;8.10;85.20;;;;;;12607644;28;20429;-73
2024/01/12 17:54:30;;;;;;;22.48;20.70;;;8.00;85.00;;;;;;12607522;28;20349;-73
2024/01/12 18:00:32;;;;;;;58.53;55.03;;;8.00;85.00;;;;;;12607186;28;20036;-74
2024/01/12 18:06:57;;;;;;;131.70;125.57;;;8.10;84.70;;;;;;12588748;28;20036;-76
2024/01/12 18:12:59;;;;;;;33.85;31.67;;;8.00;84.50;;;;;;12588472;28;20032;-75
2024/01/12 18:19:04;;;;;;;28.27;25.80;;;7.90;84.60;;;;;;12606289;28;20032;-75
2024/01/12 18:25:07;;;;;;;29.63;27.40;;;7.90;84.70;;;;;;12605639;28;20346;-75
2024/01/12 18:31:16;;;;;;;123.38;117.53;;;7.90;84.50;;;;;;12605561;28;20462;-75
2024/01/12 18:37:18;;;;;;;40.55;37.72;;;7.80;84.60;;;;;;12582750;28;20045;-75
2024/01/12 18:43:20;;;;;;;22.30;20.33;;;7.80;84.90;;;;;;12605927;28;20452;-75
2024/01/12 18:49:21;;;;;;;52.50;48.90;;;7.80;84.80;;;;;;12586975;28;20047;-75
2024/01/12 18:55:23;;;;;;;72.68;67.97;;;7.70;84.70;;;;;;12604588;28;20456;-75
2024/01/12 19:01:26;;;;;;;50.00;46.75;;;7.60;84.60;;;;;;12604079;28;20043;-75
2024/01/12 19:07:29;;;;;;;23.00;19.30;;;7.50;84.60;;;;;;12586615;28;20048;-75
2024/01/12 19:13:30;;;;;;;19.70;17.65;;;7.40;84.60;;;;;;12604112;28;20330;-74
2024/01/12 19:19:52;;;;;;;18.63;16.77;;;7.40;84.50;;;;;;12585539;28;20180;-74
2024/01/12 19:26:07;;;;;;;16.25;14.55;;;7.40;84.30;;;;;;12587184;28;20051;-74
2024/01/12 19:32:11;;;;;;;26.02;20.15;;;7.20;84.30;;;;;;12603697;28;20029;-74
2024/01/12 19:38:13;;;;;;;20.00;17.73;;;7.30;84.20;;;;;;12567471;28;20338;-76
2024/01/12 19:44:15;;;;;;;20.90;18.73;;;7.30;84.00;;;;;;12585507;28;20032;-76
2024/01/12 19:50:18;;;;;;;22.58;20.15;;;7.40;84.10;;;;;;12585313;28;20040;-76
2024/01/12 19:56:21;;;;;;;20.30;16.92;;;7.50;84.10;;;;;;12585362;28;20040;-75
2024/01/12 20:02:23;;;;;;;23.08;20.13;;;7.50;83.80;;;;;;12568415;28;20029;-76
2024/01/12 20:08:25;;;;;;;24.23;22.02;;;7.40;83.40;;;;;;12602622;28;20040;-75
2024/01/12 20:14:39;;;;;;;20.10;17.88;;;7.30;83.00;;;;;;12602664;28;20033;-76
2024/01/12 20:20:40;;;;;;;17.10;15.40;;;7.20;82.80;;;;;;12584490;28;20044;-74
2024/01/12 20:26:42;;;;;;;20.80;15.73;;;7.10;82.90;;;;;;12584335;28;20040;-73
2024/01/12 20:32:45;;;;;;;18.98;15.80;;;7.10;82.70;;;;;;12607787;28;20028;-73
2024/01/12 20:38:47;;;;;;;22.83;14.63;;;7.00;82.40;;;;;;12593583;28;20519;-73
2024/01/12 20:44:48;;;;;;;21.60;16.83;;;6.90;82.20;;;;;;12634453;28;20460;-74
2024/01/12 20:50:50;;;;;;;23.75;20.60;;;6.90;82.10;;;;;;12642414;28;20043;-74
2024/01/12 20:56:53;;;;;;;18.52;16.17;;;6.80;82.00;;;;;;12660362;28;20036;-74
2024/01/12 21:02:54;;;;;;;19.75;16.60;;;6.80;82.40;;;;;;12660232;28;20024;-74
2024/01/12 21:08:56;;;;;;;20.75;18.60;;;6.80;82.70;;;;;;12641830;28;20036;-76
2024/01/12 21:14:58;;;;;;;18.00;14.57;;;6.70;82.70;;;;;;12641446;28;20028;-76
2024/01/12 21:21:14;;;;;;;18.15;15.13;;;6.70;82.50;;;;;;12641064;28;20051;-76
2024/01/12 21:27:31;;;;;;;16.95;14.88;;;6.60;82.40;;;;;;12640907;28;20031;-77
2024/01/12 21:33:33;;;;;;;19.70;17.55;;;6.40;82.50;;;;;;12640775;28;20040;-77
2024/01/12 21:39:34;;;;;;;21.35;17.13;;;6.40;82.50;;;;;;12641253;28;20425;-77
2024/01/12 21:45:36;;;;;;;20.42;16.77;;;6.30;82.30;;;;;;12657624;28;20039;-77
2024/01/12 21:51:38;;;;;;;19.80;17.65;;;6.30;82.50;;;;;;12639985;28;20035;-74
2024/01/12 21:57:39;;;;;;;22.00;19.73;;;6.20;82.80;;;;;;12657621;28;20368;-74
2024/01/12 22:03:41;;;;;;;21.33;19.13;;;6.20;83.00;;;;;;12657358;28;20357;-74
2024/01/12 22:09:43;;;;;;;28.48;25.65;;;6.10;83.50;;;;;;12657050;28;20040;-74
2024/01/12 22:15:44;;;;;;;37.63;34.45;;;6.20;83.60;;;;;;12644321;28;20032;-75
2024/01/12 22:21:46;;;;;;;64.90;60.10;;;6.30;83.50;;;;;;12657625;28;20353;-75
2024/01/12 22:27:48;;;;;;;25.27;21.77;;;6.30;83.10;;;;;;12656112;28;20345;-75
2024/01/12 22:33:50;;;;;;;31.48;25.33;;;6.40;83.20;;;;;;12656024;28;20479;-75
2024/01/12 22:40:01;;;;;;;24.10;20.17;;;6.20;83.90;;;;;;12637682;28;20036;-74
2024/01/12 22:46:21;;;;;;;27.88;23.70;;;6.20;84.30;;;;;;12655424;28;20357;-74
2024/01/12 22:52:22;;;;;;;;;;;6.20;84.50;;;;;;12655440;28;20035;-75
2024/01/12 22:58:25;;;;;;;30.92;27.65;;;6.10;83.90;;;;;;12636543;22;19919;-75
2024/01/12 23:04:26;;;;;;;33.17;29.63;;;6.10;83.90;;;;;;12654904;28;20340;-74
2024/01/12 23:10:28;;;;;;;38.33;32.50;;;6.10;83.50;;;;;;12636564;28;20098;-76
2024/01/12 23:16:33;;;;;;;38.10;30.95;;;5.80;83.30;;;;;;12654470;28;20031;-77
2024/01/12 23:22:35;;;;;;;29.23;26.05;;;5.80;83.20;;;;;;12636577;28;20047;-77
2024/01/12 23:28:36;;;;;;;31.42;28.33;;;5.70;82.90;;;;;;12636087;28;20043;-77
2024/01/12 23:34:38;;;;;;;42.33;38.15;;;5.60;83.10;;;;;;12619336;28;20033;-77
2024/01/12 23:40:39;;;;;;;31.52;28.35;;;5.70;83.60;;;;;;12635947;28;20027;-77
2024/01/12 23:46:41;;;;;;;31.88;28.67;;;5.70;83.30;;;;;;12653672;28;20039;-77
2024/01/12 23:52:43;;;;;;;35.63;30.95;;;5.80;83.20;;;;;;12635621;28;20036;-77
2024/01/12 23:58:44;;;;;;;36.42;32.72;;;5.50;82.90;;;;;;12635350;28;20043;-77
